sensor_id;sensor_type;location;lat;lon;timestamp;P1;durP1;ratioP1;P2;durP2;ratioP2
11187;SDS011;5650;52.700;7.306;2024-01-27T00:01:03;23.73;;;5.85;;
11187;SDS011;5650;52.700;7.306;2024-01-27T00:03:33;26.63;;;6.03;;
11187;SDS011;5650;52.700;7.306;2024-01-27T00:06:03;24.95;;;6.32;;
11187;SDS011;5650;52.700;7.306;2024-01-27T00:08:30;31.08;;;6.43;;
11187;SDS011;5650;52.700;7.306;2024-01-27T00:10:59;32.08;;;5.80;;
11187;SDS011;5650;52.700;7.306;2024-01-27T00:13:26;30.08;;;6.15;;
11187;SDS011;5650;52.700;7.306;2024-01-27T00:15:54;30.50;;;5.40;;
11187;SDS011;5650;52.700;7.306;2024-01-27T00:18:21;23.60;;;5.50;;
11187;SDS011;5650;52.700;7.306;2024-01-27T00:20:51;26.48;;;5.10;;
11187;SDS011;5650;52.700;7.306;2024-01-27T00:23:18;15.10;;;4.03;;
11187;SDS011;5650;52.700;7.306;2024-01-27T00:25:46;22.40;;;4.90;;
11187;SDS011;5650;52.700;7.306;2024-01-27T00:28:14;26.83;;;5.57;;
11187;SDS011;5650;52.700;7.306;2024-01-27T00:30:43;21.48;;;5.10;;
11187;SDS011;5650;52.700;7.306;2024-01-27T00:33:11;23.58;;;5.43;;
11187;SDS011;5650;52.700;7.306;2024-01-27T00:35:41;23.95;;;5.05;;
11187;SDS011;5650;52.700;7.306;2024-01-27T00:38:14;22.67;;;5.30;;
11187;SDS011;5650;52.700;7.306;2024-01-27T00:40:41;23.77;;;6.70;;
11187;SDS011;5650;52.700;7.306;2024-01-27T00:43:09;26.20;;;5.53;;
11187;SDS011;5650;52.700;7.306;2024-01-27T00:45:40;22.80;;;6.15;;
11187;SDS011;5650;52.700;7.306;2024-01-27T00:48:10;24.48;;;6.25;;
11187;SDS011;5650;52.700;7.306;2024-01-27T00:50:38;22.65;;;4.80;;
11187;SDS011;5650;52.700;7.306;2024-01-27T00:53:05;22.65;;;5.25;;
11187;SDS011;5650;52.700;7.306;2024-01-27T00:55:32;23.27;;;5.00;;
11187;SDS011;5650;52.700;7.306;2024-01-27T00:57:59;31.20;;;4.80;;
11187;SDS011;5650;52.700;7.306;2024-01-27T01:00:26;26.45;;;5.28;;
11187;SDS011;5650;52.700;7.306;2024-01-27T01:02:57;21.85;;;4.65;;
11187;SDS011;5650;52.700;7.306;2024-01-27T01:05:27;27.20;;;4.97;;
11187;SDS011;5650;52.700;7.306;2024-01-27T01:07:54;22.40;;;5.47;;
11187;SDS011;5650;52.700;7.306;2024-01-27T01:10:22;25.90;;;6.45;;
11187;SDS011;5650;52.700;7.306;2024-01-27T01:12:52;27.08;;;5.32;;
11187;SDS011;5650;52.700;7.306;2024-01-27T01:15:22;29.77;;;5.72;;
11187;SDS011;5650;52.700;7.306;2024-01-27T01:17:49;28.83;;;5.20;;
11187;SDS011;5650;52.700;7.306;2024-01-27T01:20:18;24.88;;;5.15;;
11187;SDS011;5650;52.700;7.306;2024-01-27T01:22:48;21.55;;;5.32;;
11187;SDS011;5650;52.700;7.306;2024-01-27T01:25:18;24.20;;;5.75;;
11187;SDS011;5650;52.700;7.306;2024-01-27T01:27:46;23.98;;;5.65;;
11187;SDS011;5650;52.700;7.306;2024-01-27T01:30:14;34.50;;;5.65;;
11187;SDS011;5650;52.700;7.306;2024-01-27T01:32:41;23.13;;;4.57;;
11187;SDS011;5650;52.700;7.306;2024-01-27T01:35:11;21.48;;;5.05;;
11187;SDS011;5650;52.700;7.306;2024-01-27T01:37:40;27.30;;;4.90;;
11187;SDS011;5650;52.700;7.306;2024-01-27T01:40:10;28.17;;;4.90;;
11187;SDS011;5650;52.700;7.306;2024-01-27T01:42:40;26.75;;;5.25;;
11187;SDS011;5650;52.700;7.306;2024-01-27T01:45:18;30.90;;;4.93;;
11187;SDS011;5650;52.700;7.306;2024-01-27T01:47:46;20.75;;;4.80;;
11187;SDS011;5650;52.700;7.306;2024-01-27T01:50:13;23.65;;;5.80;;
11187;SDS011;5650;52.700;7.306;2024-01-27T01:52:41;28.17;;;5.43;;
11187;SDS011;5650;52.700;7.306;2024-01-27T01:55:09;20.17;;;4.32;;
11187;SDS011;5650;52.700;7.306;2024-01-27T01:57:39;24.58;;;4.60;;
11187;SDS011;5650;52.700;7.306;2024-01-27T02:00:09;28.15;;;5.28;;
11187;SDS011;5650;52.700;7.306;2024-01-27T02:02:37;26.45;;;5.22;;
11187;SDS011;5650;52.700;7.306;2024-01-27T02:05:10;23.40;;;4.95;;
11187;SDS011;5650;52.700;7.306;2024-01-27T02:07:44;24.20;;;4.93;;
11187;SDS011;5650;52.700;7.306;2024-01-27T02:10:14;21.70;;;5.15;;
11187;SDS011;5650;52.700;7.306;2024-01-27T02:12:42;26.58;;;4.38;;
11187;SDS011;5650;52.700;7.306;2024-01-27T02:15:10;32.08;;;5.43;;
11187;SDS011;5650;52.700;7.306;2024-01-27T02:17:44;22.17;;;4.47;;
11187;SDS011;5650;52.700;7.306;2024-01-27T02:20:16;33.72;;;4.95;;
11187;SDS011;5650;52.700;7.306;2024-01-27T02:22:48;27.63;;;5.40;;
11187;SDS011;5650;52.700;7.306;2024-01-27T02:25:17;24.60;;;5.38;;
11187;SDS011;5650;52.700;7.306;2024-01-27T02:27:44;17.50;;;4.68;;
11187;SDS011;5650;52.700;7.306;2024-01-27T02:30:11;16.15;;;4.43;;
11187;SDS011;5650;52.700;7.306;2024-01-27T02:32:41;12.85;;;3.88;;
11187;SDS011;5650;52.700;7.306;2024-01-27T02:35:08;17.65;;;4.35;;
11187;SDS011;5650;52.700;7.306;2024-01-27T02:37:39;19.77;;;4.68;;
11187;SDS011;5650;52.700;7.306;2024-01-27T02:40:15;25.80;;;5.10;;
11187;SDS011;5650;52.700;7.306;2024-01-27T02:42:44;22.60;;;4.50;;
11187;SDS011;5650;52.700;7.306;2024-01-27T02:45:11;22.60;;;4.82;;
11187;SDS011;5650;52.700;7.306;2024-01-27T02:47:39;17.02;;;3.90;;
11187;SDS011;5650;52.700;7.306;2024-01-27T02:50:06;22.13;;;4.75;;
11187;SDS011;5650;52.700;7.306;2024-01-27T02:52:47;22.95;;;4.57;;
11187;SDS011;5650;52.700;7.306;2024-01-27T02:55:15;20.95;;;4.00;;
11187;SDS011;5650;52.700;7.306;2024-01-27T02:57:46;16.85;;;4.93;;
11187;SDS011;5650;52.700;7.306;2024-01-27T03:00:16;22.13;;;4.28;;
11187;SDS011;5650;52.700;7.306;2024-01-27T03:02:44;20.52;;;4.45;;
11187;SDS011;5650;52.700;7.306;2024-01-27T03:05:14;19.08;;;4.70;;
11187;SDS011;5650;52.700;7.306;2024-01-27T03:07:45;18.88;;;4.63;;
11187;SDS011;5650;52.700;7.306;2024-01-27T03:10:12;17.65;;;4.57;;
11187;SDS011;5650;52.700;7.306;2024-01-27T03:12:42;21.13;;;4.20;;
11187;SDS011;5650;52.700;7.306;2024-01-27T03:15:10;25.88;;;4.47;;
11187;SDS011;5650;52.700;7.306;2024-01-27T03:17:43;14.38;;;3.80;;
11187;SDS011;5650;52.700;7.306;2024-01-27T03:20:13;21.80;;;4.78;;
11187;SDS011;5650;52.700;7.306;2024-01-27T03:22:40;24.40;;;4.07;;
11187;SDS011;5650;52.700;7.306;2024-01-27T03:25:13;29.73;;;4.90;;
11187;SDS011;5650;52.700;7.306;2024-01-27T03:27:40;16.42;;;4.97;;
11187;SDS011;5650;52.700;7.306;2024-01-27T03:30:08;23.73;;;5.57;;
11187;SDS011;5650;52.700;7.306;2024-01-27T03:32:40;19.42;;;4.20;;
11187;SDS011;5650;52.700;7.306;2024-01-27T03:35:07;19.55;;;4.85;;
11187;SDS011;5650;52.700;7.306;2024-01-27T03:37:38;15.70;;;4.18;;
11187;SDS011;5650;52.700;7.306;2024-01-27T03:40:05;21.45;;;4.28;;
11187;SDS011;5650;52.700;7.306;2024-01-27T03:42:36;17.52;;;3.95;;
11187;SDS011;5650;52.700;7.306;2024-01-27T03:45:04;27.17;;;5.07;;
11187;SDS011;5650;52.700;7.306;2024-01-27T03:47:35;19.15;;;3.92;;
11187;SDS011;5650;52.700;7.306;2024-01-27T03:50:03;22.20;;;4.47;;
11187;SDS011;5650;52.700;7.306;2024-01-27T03:52:30;20.90;;;4.85;;
11187;SDS011;5650;52.700;7.306;2024-01-27T03:55:00;19.67;;;4.35;;
11187;SDS011;5650;52.700;7.306;2024-01-27T03:57:27;18.05;;;3.97;;
11187;SDS011;5650;52.700;7.306;2024-01-27T03:59:54;15.65;;;4.30;;
11187;SDS011;5650;52.700;7.306;2024-01-27T04:02:24;17.75;;;4.13;;
11187;SDS011;5650;52.700;7.306;2024-01-27T04:04:52;20.80;;;4.82;;
11187;SDS011;5650;52.700;7.306;2024-01-27T04:07:19;25.13;;;4.00;;
11187;SDS011;5650;52.700;7.306;2024-01-27T04:09:56;23.55;;;4.45;;
11187;SDS011;5650;52.700;7.306;2024-01-27T04:12:23;25.27;;;5.22;;
11187;SDS011;5650;52.700;7.306;2024-01-27T04:14:53;21.58;;;4.20;;
11187;SDS011;5650;52.700;7.306;2024-01-27T04:17:20;21.52;;;4.82;;
11187;SDS011;5650;52.700;7.306;2024-01-27T04:22:44;29.77;;;4.53;;
11187;SDS011;5650;52.700;7.306;2024-01-27T04:25:14;22.77;;;4.63;;
11187;SDS011;5650;52.700;7.306;2024-01-27T04:27:41;22.23;;;5.15;;
11187;SDS011;5650;52.700;7.306;2024-01-27T04:30:14;24.42;;;4.43;;
11187;SDS011;5650;52.700;7.306;2024-01-27T04:32:41;27.55;;;4.75;;
11187;SDS011;5650;52.700;7.306;2024-01-27T04:35:08;19.25;;;4.20;;
11187;SDS011;5650;52.700;7.306;2024-01-27T04:37:36;20.45;;;3.80;;
11187;SDS011;5650;52.700;7.306;2024-01-27T04:40:05;20.45;;;4.30;;
11187;SDS011;5650;52.700;7.306;2024-01-27T04:42:42;15.73;;;3.63;;
11187;SDS011;5650;52.700;7.306;2024-01-27T04:45:14;19.63;;;4.20;;
11187;SDS011;5650;52.700;7.306;2024-01-27T04:47:42;28.60;;;5.25;;
11187;SDS011;5650;52.700;7.306;2024-01-27T04:50:09;20.73;;;4.65;;
11187;SDS011;5650;52.700;7.306;2024-01-27T04:52:45;25.25;;;4.13;;
11187;SDS011;5650;52.700;7.306;2024-01-27T04:55:14;18.77;;;4.15;;
11187;SDS011;5650;52.700;7.306;2024-01-27T04:57:41;25.80;;;4.38;;
11187;SDS011;5650;52.700;7.306;2024-01-27T05:00:09;21.35;;;4.15;;
11187;SDS011;5650;52.700;7.306;2024-01-27T05:02:40;21.02;;;4.35;;
11187;SDS011;5650;52.700;7.306;2024-01-27T05:05:14;19.80;;;4.72;;
11187;SDS011;5650;52.700;7.306;2024-01-27T05:07:44;15.52;;;4.05;;
11187;SDS011;5650;52.700;7.306;2024-01-27T05:10:14;22.67;;;5.32;;
11187;SDS011;5650;52.700;7.306;2024-01-27T05:12:44;24.48;;;4.05;;
11187;SDS011;5650;52.700;7.306;2024-01-27T05:15:14;17.27;;;4.30;;
11187;SDS011;5650;52.700;7.306;2024-01-27T05:17:41;20.85;;;4.38;;
11187;SDS011;5650;52.700;7.306;2024-01-27T05:20:14;24.33;;;4.82;;
11187;SDS011;5650;52.700;7.306;2024-01-27T05:22:42;17.88;;;4.57;;
11187;SDS011;5650;52.700;7.306;2024-01-27T05:25:09;19.83;;;4.05;;
11187;SDS011;5650;52.700;7.306;2024-01-27T05:27:38;18.80;;;5.28;;
11187;SDS011;5650;52.700;7.306;2024-01-27T05:30:05;18.65;;;3.90;;
11187;SDS011;5650;52.700;7.306;2024-01-27T05:32:33;21.65;;;4.28;;
11187;SDS011;5650;52.700;7.306;2024-01-27T05:35:00;23.15;;;4.95;;
11187;SDS011;5650;52.700;7.306;2024-01-27T05:37:28;18.30;;;4.93;;
11187;SDS011;5650;52.700;7.306;2024-01-27T05:40:04;22.42;;;5.05;;
11187;SDS011;5650;52.700;7.306;2024-01-27T05:42:32;18.98;;;4.95;;
11187;SDS011;5650;52.700;7.306;2024-01-27T05:45:04;22.70;;;4.43;;
11187;SDS011;5650;52.700;7.306;2024-01-27T05:47:32;18.38;;;4.40;;
11187;SDS011;5650;52.700;7.306;2024-01-27T05:50:06;20.05;;;4.50;;
11187;SDS011;5650;52.700;7.306;2024-01-27T05:52:34;22.48;;;4.90;;
11187;SDS011;5650;52.700;7.306;2024-01-27T05:55:01;24.98;;;6.05;;
11187;SDS011;5650;52.700;7.306;2024-01-27T05:57:31;17.30;;;5.00;;
11187;SDS011;5650;52.700;7.306;2024-01-27T06:00:10;25.50;;;5.85;;
11187;SDS011;5650;52.700;7.306;2024-01-27T06:02:44;20.73;;;5.03;;
11187;SDS011;5650;52.700;7.306;2024-01-27T06:05:11;19.08;;;5.10;;
11187;SDS011;5650;52.700;7.306;2024-01-27T06:07:38;29.92;;;5.47;;
11187;SDS011;5650;52.700;7.306;2024-01-27T06:10:10;21.23;;;5.38;;
11187;SDS011;5650;52.700;7.306;2024-01-27T06:12:38;21.30;;;5.68;;
11187;SDS011;5650;52.700;7.306;2024-01-27T06:15:15;18.65;;;5.15;;
11187;SDS011;5650;52.700;7.306;2024-01-27T06:17:42;23.17;;;6.28;;
11187;SDS011;5650;52.700;7.306;2024-01-27T06:20:12;21.15;;;6.03;;
11187;SDS011;5650;52.700;7.306;2024-01-27T06:22:44;18.75;;;6.35;;
11187;SDS011;5650;52.700;7.306;2024-01-27T06:25:11;24.73;;;6.43;;
11187;SDS011;5650;52.700;7.306;2024-01-27T06:27:39;20.00;;;5.68;;
11187;SDS011;5650;52.700;7.306;2024-01-27T06:30:10;20.33;;;6.22;;
11187;SDS011;5650;52.700;7.306;2024-01-27T06:32:39;23.60;;;6.35;;
11187;SDS011;5650;52.700;7.306;2024-01-27T06:35:06;19.90;;;6.20;;
11187;SDS011;5650;52.700;7.306;2024-01-27T06:37:34;23.92;;;7.65;;
11187;SDS011;5650;52.700;7.306;2024-01-27T06:40:01;19.83;;;6.35;;
11187;SDS011;5650;52.700;7.306;2024-01-27T06:42:29;23.80;;;6.75;;
11187;SDS011;5650;52.700;7.306;2024-01-27T06:44:56;22.60;;;7.40;;
11187;SDS011;5650;52.700;7.306;2024-01-27T06:47:24;20.42;;;6.80;;
11187;SDS011;5650;52.700;7.306;2024-01-27T06:49:55;34.75;;;7.97;;
11187;SDS011;5650;52.700;7.306;2024-01-27T06:52:22;26.75;;;8.15;;
11187;SDS011;5650;52.700;7.306;2024-01-27T06:54:52;23.30;;;8.70;;
11187;SDS011;5650;52.700;7.306;2024-01-27T06:57:23;19.10;;;6.85;;
11187;SDS011;5650;52.700;7.306;2024-01-27T06:59:57;25.38;;;7.20;;
11187;SDS011;5650;52.700;7.306;2024-01-27T07:02:24;30.55;;;8.73;;
11187;SDS011;5650;52.700;7.306;2024-01-27T07:04:56;22.38;;;8.30;;
11187;SDS011;5650;52.700;7.306;2024-01-27T07:07:23;24.25;;;8.60;;
11187;SDS011;5650;52.700;7.306;2024-01-27T07:09:52;23.73;;;8.18;;
11187;SDS011;5650;52.700;7.306;2024-01-27T07:12:21;25.52;;;8.90;;
11187;SDS011;5650;52.700;7.306;2024-01-27T07:14:48;23.33;;;8.75;;
11187;SDS011;5650;52.700;7.306;2024-01-27T07:17:16;26.90;;;8.68;;
11187;SDS011;5650;52.700;7.306;2024-01-27T07:19:43;33.70;;;9.77;;
11187;SDS011;5650;52.700;7.306;2024-01-27T07:22:12;33.20;;;9.40;;
11187;SDS011;5650;52.700;7.306;2024-01-27T07:24:42;24.85;;;9.13;;
11187;SDS011;5650;52.700;7.306;2024-01-27T07:27:12;24.90;;;9.23;;
11187;SDS011;5650;52.700;7.306;2024-01-27T07:29:46;24.40;;;9.75;;
11187;SDS011;5650;52.700;7.306;2024-01-27T07:32:13;29.63;;;9.88;;
11187;SDS011;5650;52.700;7.306;2024-01-27T07:34:42;23.63;;;9.75;;
11187;SDS011;5650;52.700;7.306;2024-01-27T07:37:11;26.10;;;8.82;;
11187;SDS011;5650;52.700;7.306;2024-01-27T07:39:39;31.25;;;9.63;;
11187;SDS011;5650;52.700;7.306;2024-01-27T07:42:06;27.48;;;9.65;;
11187;SDS011;5650;52.700;7.306;2024-01-27T07:44:35;23.30;;;9.77;;
11187;SDS011;5650;52.700;7.306;2024-01-27T07:47:05;19.50;;;9.15;;
11187;SDS011;5650;52.700;7.306;2024-01-27T07:49:32;30.10;;;9.90;;
11187;SDS011;5650;52.700;7.306;2024-01-27T07:52:02;26.63;;;9.80;;
11187;SDS011;5650;52.700;7.306;2024-01-27T07:54:31;28.17;;;9.85;;
11187;SDS011;5650;52.700;7.306;2024-01-27T07:56:58;23.75;;;9.05;;
11187;SDS011;5650;52.700;7.306;2024-01-27T07:59:25;27.67;;;10.20;;
11187;SDS011;5650;52.700;7.306;2024-01-27T08:01:55;29.30;;;9.50;;
11187;SDS011;5650;52.700;7.306;2024-01-27T08:04:22;25.17;;;9.55;;
11187;SDS011;5650;52.700;7.306;2024-01-27T08:06:49;22.20;;;9.00;;
11187;SDS011;5650;52.700;7.306;2024-01-27T08:09:17;30.35;;;9.88;;
11187;SDS011;5650;52.700;7.306;2024-01-27T08:11:46;41.92;;;9.88;;
11187;SDS011;5650;52.700;7.306;2024-01-27T08:14:16;25.67;;;9.05;;
11187;SDS011;5650;52.700;7.306;2024-01-27T08:16:43;34.78;;;10.05;;
11187;SDS011;5650;52.700;7.306;2024-01-27T08:19:10;23.27;;;8.32;;
11187;SDS011;5650;52.700;7.306;2024-01-27T08:21:45;28.58;;;9.30;;
11187;SDS011;5650;52.700;7.306;2024-01-27T08:24:14;23.80;;;9.23;;
11187;SDS011;5650;52.700;7.306;2024-01-27T08:26:58;27.52;;;8.48;;
11187;SDS011;5650;52.700;7.306;2024-01-27T08:29:32;24.52;;;8.57;;
11187;SDS011;5650;52.700;7.306;2024-01-27T08:31:59;28.08;;;9.30;;
11187;SDS011;5650;52.700;7.306;2024-01-27T08:34:26;26.73;;;10.07;;
11187;SDS011;5650;52.700;7.306;2024-01-27T08:37:00;26.75;;;8.25;;
11187;SDS011;5650;52.700;7.306;2024-01-27T08:39:46;27.27;;;9.25;;
11187;SDS011;5650;52.700;7.306;2024-01-27T08:42:14;23.10;;;8.20;;
11187;SDS011;5650;52.700;7.306;2024-01-27T08:44:41;26.55;;;9.05;;
11187;SDS011;5650;52.700;7.306;2024-01-27T08:47:15;23.08;;;8.98;;
11187;SDS011;5650;52.700;7.306;2024-01-27T08:49:42;27.95;;;9.25;;
11187;SDS011;5650;52.700;7.306;2024-01-27T08:52:09;30.20;;;8.63;;
11187;SDS011;5650;52.700;7.306;2024-01-27T08:54:36;27.55;;;9.70;;
11187;SDS011;5650;52.700;7.306;2024-01-27T08:57:12;31.02;;;8.18;;
11187;SDS011;5650;52.700;7.306;2024-01-27T08:59:41;26.67;;;9.00;;
11187;SDS011;5650;52.700;7.306;2024-01-27T09:02:08;21.75;;;8.00;;
11187;SDS011;5650;52.700;7.306;2024-01-27T09:04:52;19.40;;;8.52;;
11187;SDS011;5650;52.700;7.306;2024-01-27T09:07:19;27.33;;;8.57;;
11187;SDS011;5650;52.700;7.306;2024-01-27T09:09:57;21.52;;;8.27;;
11187;SDS011;5650;52.700;7.306;2024-01-27T09:12:28;29.58;;;9.63;;
11187;SDS011;5650;52.700;7.306;2024-01-27T09:14:55;25.88;;;8.85;;
11187;SDS011;5650;52.700;7.306;2024-01-27T09:17:23;23.70;;;9.55;;
11187;SDS011;5650;52.700;7.306;2024-01-27T09:19:53;26.83;;;9.43;;
11187;SDS011;5650;52.700;7.306;2024-01-27T09:22:20;22.17;;;8.77;;
11187;SDS011;5650;52.700;7.306;2024-01-27T09:24:48;26.77;;;8.60;;
11187;SDS011;5650;52.700;7.306;2024-01-27T09:27:18;25.73;;;9.05;;
11187;SDS011;5650;52.700;7.306;2024-01-27T09:29:46;24.77;;;9.48;;
11187;SDS011;5650;52.700;7.306;2024-01-27T09:32:13;25.23;;;9.65;;
11187;SDS011;5650;52.700;7.306;2024-01-27T09:34:47;25.48;;;8.75;;
11187;SDS011;5650;52.700;7.306;2024-01-27T09:37:14;23.05;;;8.93;;
11187;SDS011;5650;52.700;7.306;2024-01-27T09:39:41;28.48;;;8.95;;
11187;SDS011;5650;52.700;7.306;2024-01-27T09:42:08;24.77;;;9.07;;
11187;SDS011;5650;52.700;7.306;2024-01-27T09:44:40;22.65;;;9.18;;
11187;SDS011;5650;52.700;7.306;2024-01-27T09:47:14;23.75;;;8.55;;
11187;SDS011;5650;52.700;7.306;2024-01-27T09:49:41;22.33;;;9.07;;
11187;SDS011;5650;52.700;7.306;2024-01-27T09:52:12;26.50;;;9.15;;
11187;SDS011;5650;52.700;7.306;2024-01-27T09:54:40;32.60;;;9.07;;
11187;SDS011;5650;52.700;7.306;2024-01-27T09:57:10;24.33;;;8.52;;
11187;SDS011;5650;52.700;7.306;2024-01-27T09:59:42;30.70;;;8.65;;
11187;SDS011;5650;52.700;7.306;2024-01-27T10:02:11;18.52;;;7.95;;
11187;SDS011;5650;52.700;7.306;2024-01-27T10:04:41;30.67;;;8.93;;
11187;SDS011;5650;52.700;7.306;2024-01-27T10:07:10;21.60;;;8.05;;
11187;SDS011;5650;52.700;7.306;2024-01-27T10:09:40;25.52;;;8.20;;
11187;SDS011;5650;52.700;7.306;2024-01-27T10:12:10;21.95;;;7.97;;
11187;SDS011;5650;52.700;7.306;2024-01-27T10:14:47;26.73;;;8.43;;
11187;SDS011;5650;52.700;7.306;2024-01-27T10:17:21;33.22;;;8.23;;
11187;SDS011;5650;52.700;7.306;2024-01-27T10:19:58;22.15;;;7.93;;
11187;SDS011;5650;52.700;7.306;2024-01-27T10:22:45;28.48;;;11.68;;
11187;SDS011;5650;52.700;7.306;2024-01-27T10:25:18;29.02;;;10.25;;
11187;SDS011;5650;52.700;7.306;2024-01-27T10:27:45;20.90;;;7.57;;
11187;SDS011;5650;52.700;7.306;2024-01-27T10:30:15;28.15;;;8.10;;
11187;SDS011;5650;52.700;7.306;2024-01-27T10:32:53;24.98;;;7.63;;
11187;SDS011;5650;52.700;7.306;2024-01-27T10:35:21;23.17;;;12.32;;
11187;SDS011;5650;52.700;7.306;2024-01-27T10:38:01;26.02;;;9.05;;
11187;SDS011;5650;52.700;7.306;2024-01-27T10:40:28;20.35;;;7.80;;
11187;SDS011;5650;52.700;7.306;2024-01-27T10:43:00;24.58;;;8.80;;
11187;SDS011;5650;52.700;7.306;2024-01-27T10:45:34;30.27;;;9.18;;
11187;SDS011;5650;52.700;7.306;2024-01-27T10:48:04;25.05;;;9.63;;
11187;SDS011;5650;52.700;7.306;2024-01-27T10:50:36;19.05;;;7.85;;
11187;SDS011;5650;52.700;7.306;2024-01-27T10:53:19;26.60;;;8.52;;
11187;SDS011;5650;52.700;7.306;2024-01-27T10:55:49;23.98;;;8.27;;
11187;SDS011;5650;52.700;7.306;2024-01-27T10:58:19;22.02;;;8.20;;
11187;SDS011;5650;52.700;7.306;2024-01-27T11:00:52;25.02;;;9.90;;
11187;SDS011;5650;52.700;7.306;2024-01-27T11:03:23;17.80;;;8.07;;
11187;SDS011;5650;52.700;7.306;2024-01-27T11:05:53;21.17;;;7.65;;
11187;SDS011;5650;52.700;7.306;2024-01-27T11:08:22;21.00;;;7.78;;
11187;SDS011;5650;52.700;7.306;2024-01-27T11:10:53;30.08;;;9.48;;
11187;SDS011;5650;52.700;7.306;2024-01-27T11:13:20;27.42;;;9.88;;
11187;SDS011;5650;52.700;7.306;2024-01-27T11:15:55;23.50;;;10.05;;
11187;SDS011;5650;52.700;7.306;2024-01-27T11:18:28;23.33;;;7.10;;
11187;SDS011;5650;52.700;7.306;2024-01-27T11:21:03;29.77;;;10.98;;
11187;SDS011;5650;52.700;7.306;2024-01-27T11:23:39;28.75;;;10.50;;
11187;SDS011;5650;52.700;7.306;2024-01-27T11:26:16;27.25;;;8.15;;
11187;SDS011;5650;52.700;7.306;2024-01-27T11:28:45;23.35;;;7.55;;
11187;SDS011;5650;52.700;7.306;2024-01-27T11:31:18;17.65;;;7.00;;
11187;SDS011;5650;52.700;7.306;2024-01-27T11:33:49;20.52;;;7.80;;
11187;SDS011;5650;52.700;7.306;2024-01-27T11:36:18;22.02;;;10.27;;
11187;SDS011;5650;52.700;7.306;2024-01-27T11:38:47;24.20;;;7.90;;
11187;SDS011;5650;52.700;7.306;2024-01-27T11:41:23;21.13;;;7.57;;
11187;SDS011;5650;52.700;7.306;2024-01-27T11:43:53;19.70;;;9.70;;
11187;SDS011;5650;52.700;7.306;2024-01-27T11:46:22;26.85;;;10.15;;
11187;SDS011;5650;52.700;7.306;2024-01-27T11:48:51;22.55;;;9.48;;
11187;SDS011;5650;52.700;7.306;2024-01-27T11:51:18;25.70;;;8.23;;
11187;SDS011;5650;52.700;7.306;2024-01-27T11:53:48;36.72;;;21.42;;
11187;SDS011;5650;52.700;7.306;2024-01-27T11:56:18;20.98;;;6.57;;
11187;SDS011;5650;52.700;7.306;2024-01-27T11:58:46;23.60;;;6.88;;
11187;SDS011;5650;52.700;7.306;2024-01-27T12:01:17;18.65;;;7.53;;
11187;SDS011;5650;52.700;7.306;2024-01-27T12:03:44;17.73;;;6.45;;
11187;SDS011;5650;52.700;7.306;2024-01-27T12:06:19;29.50;;;9.05;;
11187;SDS011;5650;52.700;7.306;2024-01-27T12:08:52;23.92;;;7.03;;
11187;SDS011;5650;52.700;7.306;2024-01-27T12:11:21;17.30;;;6.65;;
11187;SDS011;5650;52.700;7.306;2024-01-27T12:13:48;26.85;;;6.55;;
11187;SDS011;5650;52.700;7.306;2024-01-27T12:16:15;27.92;;;12.05;;
11187;SDS011;5650;52.700;7.306;2024-01-27T12:18:45;18.58;;;6.32;;
11187;SDS011;5650;52.700;7.306;2024-01-27T12:21:12;21.30;;;7.18;;
11187;SDS011;5650;52.700;7.306;2024-01-27T12:23:54;18.02;;;6.32;;
11187;SDS011;5650;52.700;7.306;2024-01-27T12:26:22;25.67;;;14.88;;
11187;SDS011;5650;52.700;7.306;2024-01-27T12:28:53;20.17;;;5.22;;
11187;SDS011;5650;52.700;7.306;2024-01-27T12:31:20;12.55;;;5.00;;
11187;SDS011;5650;52.700;7.306;2024-01-27T12:33:49;23.48;;;6.10;;
11187;SDS011;5650;52.700;7.306;2024-01-27T12:36:17;16.10;;;5.07;;
11187;SDS011;5650;52.700;7.306;2024-01-27T12:38:58;17.95;;;5.30;;
11187;SDS011;5650;52.700;7.306;2024-01-27T12:41:26;20.67;;;6.80;;
11187;SDS011;5650;52.700;7.306;2024-01-27T12:43:54;17.23;;;6.00;;
11187;SDS011;5650;52.700;7.306;2024-01-27T12:46:24;29.40;;;8.30;;
11187;SDS011;5650;52.700;7.306;2024-01-27T12:48:59;24.25;;;11.25;;
11187;SDS011;5650;52.700;7.306;2024-01-27T12:51:35;38.88;;;24.00;;
11187;SDS011;5650;52.700;7.306;2024-01-27T12:54:12;55.65;;;30.40;;
11187;SDS011;5650;52.700;7.306;2024-01-27T12:56:42;19.67;;;6.82;;
11187;SDS011;5650;52.700;7.306;2024-01-27T12:59:12;14.57;;;5.85;;
11187;SDS011;5650;52.700;7.306;2024-01-27T13:01:39;20.85;;;6.00;;
11187;SDS011;5650;52.700;7.306;2024-01-27T13:04:12;21.75;;;5.93;;
11187;SDS011;5650;52.700;7.306;2024-01-27T13:06:48;20.20;;;6.30;;
11187;SDS011;5650;52.700;7.306;2024-01-27T13:09:29;20.77;;;6.15;;
11187;SDS011;5650;52.700;7.306;2024-01-27T13:12:02;15.88;;;5.15;;
11187;SDS011;5650;52.700;7.306;2024-01-27T13:14:30;21.08;;;6.53;;
11187;SDS011;5650;52.700;7.306;2024-01-27T13:16:59;19.20;;;4.80;;
11187;SDS011;5650;52.700;7.306;2024-01-27T13:19:33;24.20;;;5.78;;
11187;SDS011;5650;52.700;7.306;2024-01-27T13:22:00;19.45;;;6.30;;
11187;SDS011;5650;52.700;7.306;2024-01-27T13:24:32;15.02;;;4.70;;
11187;SDS011;5650;52.700;7.306;2024-01-27T13:27:05;27.88;;;5.82;;
11187;SDS011;5650;52.700;7.306;2024-01-27T13:29:41;14.18;;;4.30;;
11187;SDS011;5650;52.700;7.306;2024-01-27T13:32:10;16.10;;;5.13;;
11187;SDS011;5650;52.700;7.306;2024-01-27T13:34:40;14.90;;;4.25;;
11187;SDS011;5650;52.700;7.306;2024-01-27T13:37:10;18.95;;;5.07;;
11187;SDS011;5650;52.700;7.306;2024-01-27T13:39:42;13.00;;;4.80;;
11187;SDS011;5650;52.700;7.306;2024-01-27T13:42:09;16.00;;;4.55;;
11187;SDS011;5650;52.700;7.306;2024-01-27T13:44:36;14.75;;;4.00;;
11187;SDS011;5650;52.700;7.306;2024-01-27T13:47:07;12.82;;;3.70;;
11187;SDS011;5650;52.700;7.306;2024-01-27T13:49:40;19.88;;;5.47;;
11187;SDS011;5650;52.700;7.306;2024-01-27T13:52:07;17.70;;;4.40;;
11187;SDS011;5650;52.700;7.306;2024-01-27T13:54:44;16.83;;;4.15;;
11187;SDS011;5650;52.700;7.306;2024-01-27T13:57:11;13.57;;;4.05;;
11187;SDS011;5650;52.700;7.306;2024-01-27T13:59:47;14.88;;;4.50;;
11187;SDS011;5650;52.700;7.306;2024-01-27T14:02:21;12.57;;;3.67;;
11187;SDS011;5650;52.700;7.306;2024-01-27T14:04:48;16.13;;;3.80;;
11187;SDS011;5650;52.700;7.306;2024-01-27T14:07:15;18.17;;;4.28;;
11187;SDS011;5650;52.700;7.306;2024-01-27T14:09:43;15.38;;;4.22;;
11187;SDS011;5650;52.700;7.306;2024-01-27T14:12:20;21.25;;;4.53;;
11187;SDS011;5650;52.700;7.306;2024-01-27T14:15:01;13.50;;;4.15;;
11187;SDS011;5650;52.700;7.306;2024-01-27T14:17:36;14.50;;;3.92;;
11187;SDS011;5650;52.700;7.306;2024-01-27T14:20:12;24.20;;;5.20;;
11187;SDS011;5650;52.700;7.306;2024-01-27T14:22:39;17.08;;;3.88;;
11187;SDS011;5650;52.700;7.306;2024-01-27T14:25:08;16.85;;;4.40;;
11187;SDS011;5650;52.700;7.306;2024-01-27T14:27:35;15.93;;;4.03;;
11187;SDS011;5650;52.700;7.306;2024-01-27T14:30:02;16.55;;;3.85;;
11187;SDS011;5650;52.700;7.306;2024-01-27T14:32:33;13.05;;;3.40;;
11187;SDS011;5650;52.700;7.306;2024-01-27T14:35:00;15.23;;;3.63;;
11187;SDS011;5650;52.700;7.306;2024-01-27T14:37:30;19.85;;;3.83;;
11187;SDS011;5650;52.700;7.306;2024-01-27T14:40:01;11.85;;;3.67;;
11187;SDS011;5650;52.700;7.306;2024-01-27T14:42:31;13.15;;;4.60;;
11187;SDS011;5650;52.700;7.306;2024-01-27T14:45:01;12.77;;;3.92;;
11187;SDS011;5650;52.700;7.306;2024-01-27T14:47:28;11.55;;;3.55;;
11187;SDS011;5650;52.700;7.306;2024-01-27T14:49:55;20.08;;;4.32;;
11187;SDS011;5650;52.700;7.306;2024-01-27T14:52:22;16.70;;;3.88;;
11187;SDS011;5650;52.700;7.306;2024-01-27T14:54:53;25.05;;;4.40;;
11187;SDS011;5650;52.700;7.306;2024-01-27T14:57:26;18.70;;;5.40;;
11187;SDS011;5650;52.700;7.306;2024-01-27T14:59:55;16.10;;;4.72;;
11187;SDS011;5650;52.700;7.306;2024-01-27T15:02:22;20.23;;;5.10;;
11187;SDS011;5650;52.700;7.306;2024-01-27T15:04:52;15.10;;;4.30;;
11187;SDS011;5650;52.700;7.306;2024-01-27T15:07:19;17.33;;;4.40;;